createdAt,value
2023-02-07T00:02:05.661Z,27.60
2023-02-07T00:04:33.572Z,30.83
2023-02-07T00:07:00.866Z,29.10
2023-02-07T00:09:28.167Z,30.63
2023-02-07T00:11:55.504Z,37.57
2023-02-07T00:14:22.781Z,25.37
2023-02-07T00:16:50.042Z,45.70
2023-02-07T00:19:17.327Z,29.80
2023-02-07T00:21:45.295Z,42.03
2023-02-07T00:24:13.285Z,28.97
2023-02-07T00:26:40.566Z,32.13
2023-02-07T00:29:08.000Z,48.90
2023-02-07T00:31:36.435Z,33.80
2023-02-07T00:34:05.942Z,34.23
2023-02-07T00:36:34.923Z,32.00
2023-02-07T00:39:05.215Z,29.40
2023-02-07T00:41:32.835Z,34.53
2023-02-07T00:44:00.096Z,37.60
2023-02-07T00:46:27.551Z,45.20
2023-02-07T00:48:54.909Z,36.03
2023-02-07T00:51:24.898Z,31.87
2023-02-07T00:53:53.653Z,30.90
2023-02-07T00:56:23.028Z,27.73
2023-02-07T00:58:51.071Z,23.90
2023-02-07T01:01:19.522Z,32.53
2023-02-07T01:03:46.903Z,46.47
2023-02-07T01:06:14.455Z,34.27
2023-02-07T01:08:41.861Z,28.90
2023-02-07T01:11:11.227Z,25.33
2023-02-07T01:13:42.524Z,30.40
2023-02-07T01:16:18.447Z,27.60
2023-02-07T01:18:45.889Z,14.53
2023-02-07T01:21:17.493Z,26.70
2023-02-07T01:23:44.811Z,16.13
2023-02-07T01:26:12.445Z,37.80
2023-02-07T01:28:40.548Z,22.17
2023-02-07T01:31:08.575Z,21.23
2023-02-07T01:33:36.785Z,26.53
2023-02-07T01:36:07.358Z,23.33
2023-02-07T01:38:34.808Z,26.53
2023-02-07T01:41:02.166Z,35.80
2023-02-07T01:43:29.619Z,32.03
2023-02-07T01:45:57.812Z,28.30
2023-02-07T01:48:29.217Z,45.87
2023-02-07T01:50:59.700Z,26.20
2023-02-07T01:53:28.592Z,30.20
2023-02-07T01:56:01.967Z,38.73
2023-02-07T01:58:29.444Z,32.17
2023-02-07T02:00:58.752Z,36.40
2023-02-07T02:03:26.460Z,30.10
2023-02-07T02:05:55.184Z,34.00
2023-02-07T02:08:23.868Z,45.33
2023-02-07T02:11:02.206Z,34.17
2023-02-07T02:13:36.469Z,39.30
2023-02-07T02:16:25.624Z,26.53
2023-02-07T02:19:10.584Z,35.03
2023-02-07T02:22:11.710Z,33.03
2023-02-07T02:25:15.140Z,32.60
2023-02-07T02:28:07.323Z,34.93
2023-02-07T02:31:02.290Z,43.77
2023-02-07T02:33:41.453Z,35.57
2023-02-07T02:36:16.851Z,29.50
2023-02-07T02:38:48.417Z,36.47
2023-02-07T02:41:22.936Z,25.37
2023-02-07T02:43:53.688Z,37.47
2023-02-07T02:46:24.405Z,36.43
2023-02-07T02:48:53.192Z,37.50
2023-02-07T02:51:20.730Z,28.13
2023-02-07T02:53:52.966Z,32.00
2023-02-07T02:56:36.475Z,35.87
2023-02-07T02:59:25.462Z,27.30
2023-02-07T03:02:05.721Z,46.20
2023-02-07T03:04:52.130Z,33.97
2023-02-07T03:07:40.870Z,37.33
2023-02-07T03:10:14.312Z,31.37
2023-02-07T03:12:49.058Z,41.97
2023-02-07T03:15:22.832Z,36.23
2023-02-07T03:17:55.762Z,29.03
2023-02-07T03:20:30.061Z,27.40
2023-02-07T03:22:59.808Z,40.70
2023-02-07T03:25:29.561Z,21.80
2023-02-07T03:27:57.952Z,36.27
2023-02-07T03:30:31.238Z,25.73
2023-02-07T03:33:09.648Z,26.13
2023-02-07T03:35:44.222Z,21.60
2023-02-07T03:38:12.083Z,27.80
2023-02-07T03:40:43.926Z,36.23
2023-02-07T03:43:15.825Z,30.50
2023-02-07T03:45:43.757Z,38.50
2023-02-07T03:48:11.364Z,26.60
2023-02-07T03:50:39.340Z,27.03
2023-02-07T03:53:06.784Z,47.87
2023-02-07T03:55:34.376Z,41.37
2023-02-07T03:58:01.685Z,29.00
2023-02-07T04:00:29.239Z,28.50
2023-02-07T04:02:56.518Z,31.13
2023-02-07T04:05:23.790Z,28.63
2023-02-07T04:07:51.797Z,24.90
2023-02-07T04:10:19.390Z,36.70
2023-02-07T04:12:46.635Z,29.47
2023-02-07T04:15:14.067Z,31.17
2023-02-07T04:17:41.385Z,37.73
2023-02-07T04:20:09.960Z,34.83
2023-02-07T04:22:37.272Z,36.90
2023-02-07T04:25:06.006Z,31.53
2023-02-07T04:27:33.263Z,42.13
2023-02-07T04:30:00.559Z,38.50
2023-02-07T04:32:27.862Z,32.23
2023-02-07T04:34:55.113Z,24.20
2023-02-07T04:37:22.427Z,33.50
2023-02-07T04:39:49.735Z,26.63
2023-02-07T04:42:17.709Z,27.40
2023-02-07T04:44:45.028Z,28.83
2023-02-07T04:47:12.584Z,28.40
2023-02-07T04:49:39.903Z,38.27
2023-02-07T04:52:07.228Z,30.20
2023-02-07T04:54:34.476Z,33.90
2023-02-07T04:57:01.769Z,30.90
2023-02-07T04:59:29.913Z,32.90
2023-02-07T05:01:57.293Z,37.00
2023-02-07T05:04:24.771Z,29.43
2023-02-07T05:06:52.074Z,45.10
2023-02-07T05:09:19.345Z,42.20
2023-02-07T05:11:46.611Z,66.40
2023-02-07T05:14:13.876Z,42.87
2023-02-07T05:16:41.922Z,40.03
2023-02-07T05:19:09.220Z,31.23
2023-02-07T05:21:36.483Z,40.90
2023-02-07T05:24:03.914Z,42.33
2023-02-07T05:26:31.223Z,31.30
2023-02-07T05:28:58.499Z,31.03
2023-02-07T05:31:45.913Z,33.33
2023-02-07T05:34:13.693Z,113.77
2023-02-07T05:36:40.999Z,109.57
2023-02-07T05:39:08.263Z,72.63
2023-02-07T05:41:35.557Z,36.87
2023-02-07T05:44:03.067Z,32.70
2023-02-07T05:46:30.384Z,30.97
2023-02-07T05:48:57.655Z,31.23
2023-02-07T05:51:25.672Z,28.50
2023-02-07T05:53:52.901Z,37.10
2023-02-07T05:56:20.162Z,42.60
2023-02-07T05:58:47.436Z,31.27
2023-02-07T06:01:14.759Z,43.70
2023-02-07T06:03:42.104Z,49.33
2023-02-07T06:06:09.423Z,29.03
2023-02-07T06:08:37.314Z,34.33
2023-02-07T06:11:04.806Z,25.70
2023-02-07T06:13:32.080Z,33.20
2023-02-07T06:15:59.462Z,37.70
2023-02-07T06:18:26.779Z,37.60
2023-02-07T06:20:54.082Z,46.57
2023-02-07T06:23:22.346Z,33.40
2023-02-07T06:25:50.278Z,34.73
2023-02-07T06:28:17.604Z,38.97
2023-02-07T06:30:45.022Z,44.53
2023-02-07T06:33:12.321Z,38.73
2023-02-07T06:35:46.373Z,43.20
2023-02-07T06:38:14.120Z,37.37
2023-02-07T06:40:42.120Z,53.80
2023-02-07T06:43:12.610Z,35.00
2023-02-07T06:45:40.109Z,34.30
2023-02-07T06:48:08.143Z,34.73
2023-02-07T06:50:35.678Z,38.53
2023-02-07T06:53:03.059Z,35.10
2023-02-07T06:55:31.138Z,36.73
2023-02-07T06:57:58.506Z,41.10
2023-02-07T07:00:26.926Z,38.83
2023-02-07T07:02:54.606Z,37.53
2023-02-07T07:05:21.931Z,42.00
2023-02-07T07:07:50.898Z,47.53
2023-02-07T07:10:18.524Z,46.23
2023-02-07T07:12:47.139Z,46.03
2023-02-07T07:15:14.968Z,43.33
2023-02-07T07:17:43.302Z,46.73
2023-02-07T07:20:12.296Z,53.27
2023-02-07T07:22:39.579Z,60.80
2023-02-07T07:25:07.839Z,39.90
2023-02-07T07:27:35.399Z,57.57
2023-02-07T07:30:03.066Z,38.10
2023-02-07T07:32:34.210Z,43.50
2023-02-07T07:35:03.056Z,35.97
2023-02-07T07:37:30.690Z,46.13
2023-02-07T07:39:58.015Z,46.03
2023-02-07T07:42:25.394Z,44.00
2023-02-07T07:44:52.675Z,45.53
2023-02-07T07:47:20.089Z,44.50
2023-02-07T07:49:47.373Z,51.67
2023-02-07T07:52:15.326Z,51.00
2023-02-07T07:54:42.594Z,46.17
2023-02-07T07:57:09.897Z,54.73
2023-02-07T07:59:37.190Z,58.57
2023-02-07T08:02:04.496Z,49.90
2023-02-07T08:04:31.826Z,46.97
2023-02-07T08:07:00.137Z,52.37
2023-02-07T08:09:28.077Z,53.00
2023-02-07T08:11:55.330Z,68.30
2023-02-07T08:14:22.614Z,43.20
2023-02-07T08:16:49.867Z,48.63
2023-02-07T08:19:17.153Z,48.70
2023-02-07T08:21:44.912Z,55.83
2023-02-07T08:24:12.193Z,44.93
2023-02-07T08:26:40.148Z,50.30
2023-02-07T08:29:07.419Z,55.80
2023-02-07T08:31:34.840Z,57.03
2023-02-07T08:34:02.277Z,44.87
2023-02-07T08:36:29.692Z,43.03
2023-02-07T08:38:57.041Z,56.10
2023-02-07T08:41:24.320Z,55.77
2023-02-07T08:43:52.390Z,44.17
2023-02-07T08:46:19.696Z,44.77
2023-02-07T08:48:46.910Z,45.80
2023-02-07T08:51:14.202Z,47.80
2023-02-07T08:53:41.458Z,43.70
2023-02-07T08:56:08.779Z,67.67
2023-02-07T08:58:36.050Z,45.23
2023-02-07T09:01:04.157Z,40.77
2023-02-07T09:03:31.564Z,34.23
2023-02-07T09:05:59.209Z,38.87
2023-02-07T09:08:26.519Z,39.80
2023-02-07T09:10:54.159Z,48.13
2023-02-07T09:13:21.499Z,40.70
2023-02-07T09:15:54.551Z,41.03
2023-02-07T09:18:22.704Z,43.60
2023-02-07T09:20:50.124Z,42.90
2023-02-07T09:23:20.117Z,43.20
2023-02-07T09:25:49.099Z,40.73
2023-02-07T09:28:16.824Z,40.67
2023-02-07T09:30:44.588Z,39.60
2023-02-07T09:33:14.015Z,48.43
2023-02-07T09:35:43.881Z,39.87
2023-02-07T09:38:14.422Z,34.70
2023-02-07T09:40:42.755Z,38.73
2023-02-07T09:43:20.385Z,55.00
2023-02-07T09:46:01.015Z,47.07
2023-02-07T09:48:36.793Z,37.77
2023-02-07T09:51:06.506Z,42.90
2023-02-07T09:53:41.348Z,33.40
2023-02-07T09:56:10.401Z,40.80
2023-02-07T09:58:43.716Z,46.30
2023-02-07T10:01:15.063Z,36.07
2023-02-07T10:03:51.470Z,32.10
2023-02-07T10:06:26.356Z,40.33
2023-02-07T10:08:58.790Z,44.00
2023-02-07T10:11:41.137Z,45.90
2023-02-07T10:14:22.051Z,40.67
2023-02-07T10:17:06.125Z,50.00
2023-02-07T10:19:43.026Z,41.73
2023-02-07T10:22:20.584Z,38.57
2023-02-07T10:25:12.259Z,46.20
2023-02-07T10:27:49.019Z,36.03
2023-02-07T10:30:21.193Z,48.37
2023-02-07T10:32:49.702Z,39.10
2023-02-07T10:35:20.358Z,39.07
2023-02-07T10:37:50.923Z,34.63
2023-02-07T10:40:24.088Z,52.87
2023-02-07T10:42:58.558Z,43.93
2023-02-07T10:45:25.883Z,29.20
2023-02-07T10:47:53.243Z,38.90
2023-02-07T10:50:41.643Z,36.17
2023-02-07T10:53:09.768Z,39.77
2023-02-07T10:55:42.292Z,35.60
2023-02-07T10:58:22.788Z,49.07
2023-02-07T11:00:53.363Z,31.57
2023-02-07T11:03:22.001Z,41.47
2023-02-07T11:05:55.096Z,28.90
2023-02-07T11:08:26.469Z,39.60
2023-02-07T11:10:55.954Z,33.87
2023-02-07T11:13:27.269Z,34.67
2023-02-07T11:15:59.461Z,35.73
2023-02-07T11:18:37.431Z,43.37
2023-02-07T11:21:21.018Z,41.23
2023-02-07T11:23:49.813Z,43.63
2023-02-07T11:26:18.638Z,43.43
2023-02-07T11:28:46.949Z,43.70
2023-02-07T11:31:17.254Z,34.93
2023-02-07T11:33:44.693Z,40.80
2023-02-07T11:36:21.404Z,42.47
2023-02-07T11:38:52.980Z,39.73
2023-02-07T11:41:23.818Z,38.37
2023-02-07T11:44:00.295Z,34.13
2023-02-07T11:46:36.244Z,16.80
2023-02-07T11:49:05.743Z,30.20
2023-02-07T11:51:34.582Z,24.13
2023-02-07T11:54:04.610Z,34.60
2023-02-07T11:56:37.356Z,51.27
2023-02-07T11:59:10.758Z,46.70
2023-02-07T12:01:38.964Z,45.40
2023-02-07T12:04:11.055Z,33.07
2023-02-07T12:06:41.669Z,31.60
2023-02-07T12:09:22.197Z,53.07
2023-02-07T12:11:50.407Z,24.07
2023-02-07T12:14:24.889Z,45.70
2023-02-07T12:16:55.982Z,33.17
2023-02-07T12:19:27.890Z,42.20
2023-02-07T12:22:00.170Z,47.27
2023-02-07T12:24:34.670Z,41.77
2023-02-07T12:27:06.189Z,56.90
2023-02-07T12:29:48.999Z,37.00
2023-02-07T12:32:27.313Z,38.13
2023-02-07T12:35:00.361Z,29.67
2023-02-07T12:37:33.521Z,43.33
2023-02-07T12:40:09.954Z,42.40
2023-02-07T12:42:42.389Z,29.57
2023-02-07T12:45:16.012Z,41.97
2023-02-07T12:47:53.216Z,23.53
2023-02-07T12:50:30.971Z,40.47
2023-02-07T12:53:17.080Z,43.90
2023-02-07T12:55:54.336Z,46.30
2023-02-07T12:58:39.667Z,38.10
2023-02-07T13:01:15.260Z,17.57
2023-02-07T13:04:05.242Z,45.17
2023-02-07T13:06:39.711Z,50.17
2023-02-07T13:09:16.599Z,43.17
2023-02-07T13:11:55.095Z,43.30
2023-02-07T13:14:34.866Z,30.40
2023-02-07T13:17:27.103Z,30.10
2023-02-07T13:19:59.810Z,39.47
2023-02-07T13:22:32.114Z,23.03
2023-02-07T13:25:01.231Z,28.10
2023-02-07T13:27:30.024Z,33.63
2023-02-07T13:30:00.093Z,38.43
2023-02-07T13:32:28.488Z,36.80
2023-02-07T13:35:00.857Z,35.20
2023-02-07T13:37:46.334Z,33.97
2023-02-07T13:40:28.226Z,30.83
2023-02-07T13:43:04.920Z,25.33
2023-02-07T13:45:45.486Z,42.13
2023-02-07T13:48:24.900Z,42.93
2023-02-07T13:51:00.105Z,33.37
2023-02-07T13:53:41.272Z,35.10
2023-02-07T13:56:31.270Z,37.60
2023-02-07T13:59:17.983Z,21.10
2023-02-07T14:01:51.122Z,33.30
2023-02-07T14:04:24.229Z,25.93
2023-02-07T14:07:04.599Z,23.67
2023-02-07T14:09:35.278Z,32.10
2023-02-07T14:12:05.145Z,28.70
2023-02-07T14:14:36.146Z,36.80
2023-02-07T14:17:13.716Z,58.60
2023-02-07T14:19:54.997Z,44.90
2023-02-07T14:22:26.053Z,47.30
2023-02-07T14:25:37.608Z,25.10
2023-02-07T14:28:18.375Z,39.77
2023-02-07T14:31:00.696Z,37.77
2023-02-07T14:33:34.281Z,31.13
2023-02-07T14:36:20.184Z,37.53
2023-02-07T14:39:04.148Z,38.63
2023-02-07T14:41:33.433Z,34.67
2023-02-07T14:44:09.563Z,65.03
2023-02-07T14:46:41.510Z,46.17
2023-02-07T14:49:15.356Z,82.30
2023-02-07T14:51:46.300Z,45.53
2023-02-07T14:54:19.357Z,34.17
2023-02-07T14:56:54.873Z,46.83
2023-02-07T14:59:29.085Z,46.83
2023-02-07T15:01:57.287Z,49.10
2023-02-07T15:04:24.607Z,49.20
2023-02-07T15:06:52.261Z,49.47
2023-02-07T15:09:24.780Z,38.80
2023-02-07T15:12:04.864Z,45.10
2023-02-07T15:14:36.285Z,48.83
2023-02-07T15:17:04.794Z,55.47
2023-02-07T15:19:35.155Z,53.93
2023-02-07T15:22:05.606Z,39.87
2023-02-07T15:24:49.827Z,48.30
2023-02-07T15:27:21.923Z,69.07
2023-02-07T15:29:55.420Z,75.60
2023-02-07T15:32:27.248Z,47.90
2023-02-07T15:34:56.273Z,40.23
2023-02-07T15:37:25.667Z,49.50
2023-02-07T15:39:53.893Z,46.33
2023-02-07T15:42:21.670Z,46.43
2023-02-07T15:44:50.578Z,58.37
2023-02-07T15:47:36.005Z,49.43
2023-02-07T15:50:05.531Z,54.70
2023-02-07T15:52:35.437Z,45.13
2023-02-07T15:55:15.318Z,61.57
2023-02-07T15:57:43.913Z,55.13
2023-02-07T16:00:16.938Z,58.43
2023-02-07T16:02:54.344Z,58.47
2023-02-07T16:05:25.762Z,58.30
2023-02-07T16:07:53.819Z,51.20
2023-02-07T16:10:34.649Z,68.43
2023-02-07T16:13:02.840Z,60.13
2023-02-07T16:15:32.521Z,57.00
2023-02-07T16:18:01.613Z,48.10
2023-02-07T16:20:31.049Z,55.37
2023-02-07T16:23:02.269Z,90.63
2023-02-07T16:25:34.834Z,110.27
2023-02-07T16:28:03.525Z,126.43
2023-02-07T16:30:33.840Z,50.03
2023-02-07T16:33:05.337Z,59.37
2023-02-07T16:35:33.001Z,70.93
2023-02-07T16:38:00.394Z,53.50
2023-02-07T16:40:27.843Z,66.43
2023-02-07T16:42:56.470Z,47.40
2023-02-07T16:45:25.104Z,57.80
2023-02-07T16:47:52.539Z,61.83
2023-02-07T16:50:22.843Z,55.93
2023-02-07T16:52:51.477Z,51.73
2023-02-07T16:55:20.283Z,85.47
2023-02-07T16:57:48.629Z,69.07
2023-02-07T17:00:18.777Z,66.63
2023-02-07T17:02:47.796Z,90.40
2023-02-07T17:05:15.658Z,118.20
2023-02-07T17:07:43.707Z,80.20
2023-02-07T17:10:20.759Z,89.17
2023-02-07T17:12:48.248Z,72.80
2023-02-07T17:15:15.870Z,83.53
2023-02-07T17:17:43.198Z,66.30
2023-02-07T17:20:22.989Z,75.30
2023-02-07T17:22:50.958Z,67.87
2023-02-07T17:25:19.041Z,77.27
2023-02-07T17:27:46.398Z,68.70
2023-02-07T17:30:15.705Z,79.50
2023-02-07T17:32:43.161Z,63.30
2023-02-07T17:35:10.441Z,96.37
2023-02-07T17:37:40.055Z,86.63
2023-02-07T17:40:25.390Z,58.50
2023-02-07T17:42:53.271Z,80.23
2023-02-07T17:45:20.575Z,73.60
2023-02-07T17:47:47.915Z,72.23
2023-02-07T17:50:17.839Z,70.97
2023-02-07T17:52:45.217Z,67.10
2023-02-07T17:55:13.606Z,234.47
2023-02-07T17:57:41.572Z,71.60
2023-02-07T18:00:18.036Z,68.40
2023-02-07T18:02:47.436Z,69.03
2023-02-07T18:05:15.772Z,65.23
2023-02-07T18:07:43.221Z,50.53
2023-02-07T18:10:15.999Z,55.00
2023-02-07T18:12:43.513Z,65.27
2023-02-07T18:15:11.547Z,59.00
2023-02-07T18:17:39.542Z,70.20
2023-02-07T18:20:10.317Z,43.97
2023-02-07T18:22:37.732Z,48.87
2023-02-07T18:25:05.487Z,37.40
2023-02-07T18:27:35.013Z,63.93
2023-02-07T18:30:02.336Z,49.47
2023-02-07T18:32:29.616Z,54.30
2023-02-07T18:34:56.839Z,53.13
2023-02-07T18:37:25.886Z,48.53
2023-02-07T18:39:53.164Z,53.30
2023-02-07T18:42:21.035Z,50.63
2023-02-07T18:44:48.902Z,63.33
2023-02-07T18:47:18.594Z,59.97
2023-02-07T18:49:46.251Z,60.53
2023-02-07T18:52:14.075Z,65.67
2023-02-07T18:54:42.326Z,68.37
2023-02-07T18:57:09.781Z,68.03
2023-02-07T18:59:38.091Z,81.40
2023-02-07T19:02:06.748Z,89.03
2023-02-07T19:04:34.029Z,80.73
2023-02-07T19:07:01.528Z,79.33
2023-02-07T19:09:31.743Z,75.00
2023-02-07T19:12:09.858Z,66.73
2023-02-07T19:14:40.883Z,65.53
2023-02-07T19:17:11.489Z,64.83
2023-02-07T19:19:38.998Z,63.10
2023-02-07T19:22:06.268Z,60.00
2023-02-07T19:24:38.274Z,81.33
2023-02-07T19:27:10.293Z,65.50
2023-02-07T19:29:40.268Z,80.70
2023-02-07T19:32:09.467Z,64.93
2023-02-07T19:34:38.682Z,70.13
2023-02-07T19:37:08.903Z,69.83
2023-02-07T19:39:36.491Z,67.93
2023-02-07T19:42:04.181Z,76.17
2023-02-07T19:44:31.446Z,60.17
2023-02-07T19:46:58.715Z,64.53
2023-02-07T19:49:27.637Z,61.57
2023-02-07T19:51:54.865Z,64.00
2023-02-07T19:54:26.336Z,59.57
2023-02-07T19:56:59.253Z,52.20
2023-02-07T19:59:35.304Z,51.80
2023-02-07T20:02:15.205Z,58.47
2023-02-07T20:04:44.396Z,67.33
2023-02-07T20:07:27.032Z,62.47
2023-02-07T20:09:54.355Z,64.90
2023-02-07T20:12:21.626Z,61.10
2023-02-07T20:14:48.880Z,59.83
2023-02-07T20:17:16.107Z,54.77
2023-02-07T20:19:44.062Z,74.93
2023-02-07T20:22:11.315Z,61.77
2023-02-07T20:24:38.644Z,68.93
2023-02-07T20:27:05.949Z,124.73
2023-02-07T20:29:36.294Z,89.07
2023-02-07T20:32:03.593Z,123.30
2023-02-07T20:38:19.858Z,162.97
2023-02-07T20:40:47.164Z,69.43
2023-02-07T20:43:14.473Z,67.70
2023-02-07T20:45:41.756Z,80.40
2023-02-07T20:48:12.538Z,59.60
2023-02-07T20:50:44.136Z,76.10
2023-02-07T20:53:11.329Z,63.77
2023-02-07T20:55:41.816Z,64.03
2023-02-07T20:58:10.926Z,159.87
2023-02-07T21:00:38.520Z,150.27
2023-02-07T21:03:09.005Z,94.00
2023-02-07T21:05:38.606Z,96.60
2023-02-07T21:08:06.172Z,71.23
2023-02-07T21:10:33.527Z,71.03
2023-02-07T21:13:04.599Z,75.13
2023-02-07T21:15:31.883Z,68.17
2023-02-07T21:17:59.096Z,97.87
2023-02-07T21:20:26.892Z,84.97
2023-02-07T21:22:54.244Z,66.63
2023-02-07T21:25:21.532Z,61.43
2023-02-07T21:27:48.853Z,64.53
2023-02-07T21:30:16.888Z,68.47
2023-02-07T21:32:44.116Z,76.97
2023-02-07T21:35:11.425Z,77.27
2023-02-07T21:37:38.680Z,66.30
2023-02-07T21:40:07.098Z,62.60
2023-02-07T21:42:34.320Z,70.27
2023-02-07T21:45:26.132Z,68.57
2023-02-07T21:47:54.185Z,59.90
2023-02-07T21:50:22.067Z,74.53
2023-02-07T21:52:49.330Z,71.03
2023-02-07T21:55:16.732Z,72.20
2023-02-07T21:57:47.300Z,83.30
2023-02-07T22:00:14.949Z,68.70
2023-02-07T22:02:42.191Z,65.00
2023-02-07T22:05:10.155Z,64.50
2023-02-07T22:07:37.381Z,50.80
2023-02-07T22:10:05.164Z,72.43
2023-02-07T22:12:32.501Z,71.30
2023-02-07T22:14:59.788Z,81.63
2023-02-07T22:17:27.049Z,58.87
2023-02-07T22:19:54.314Z,72.63
2023-02-07T22:22:22.390Z,76.00
2023-02-07T22:24:49.640Z,65.13
2023-02-07T22:27:16.839Z,68.13
2023-02-07T22:29:44.064Z,89.93
2023-02-07T22:32:11.343Z,90.27
2023-02-07T22:34:40.137Z,68.27
2023-02-07T22:37:07.429Z,70.57
2023-02-07T22:39:56.084Z,83.60
2023-02-07T22:42:23.350Z,87.90
2023-02-07T22:44:53.475Z,68.93
2023-02-07T22:47:24.975Z,82.17
2023-02-07T22:49:56.654Z,79.27
2023-02-07T22:52:23.886Z,66.43
2023-02-07T22:54:54.560Z,94.67
2023-02-07T22:57:27.745Z,71.77
2023-02-07T23:00:51.516Z,75.87
2023-02-07T23:03:24.560Z,77.10
2023-02-07T23:06:12.326Z,59.57
2023-02-07T23:08:39.668Z,69.70
2023-02-07T23:11:08.297Z,74.63
2023-02-07T23:13:35.802Z,71.87
2023-02-07T23:16:03.418Z,67.63
2023-02-07T23:18:30.906Z,71.07
2023-02-07T23:20:58.181Z,76.67
2023-02-07T23:23:25.855Z,59.37
2023-02-07T23:25:53.105Z,50.30
2023-02-07T23:28:21.095Z,56.67
2023-02-07T23:30:48.395Z,65.43
2023-02-07T23:33:15.698Z,59.93
2023-02-07T23:35:42.927Z,74.67
2023-02-07T23:38:10.169Z,68.63
2023-02-07T23:40:37.647Z,71.03
2023-02-07T23:43:05.034Z,71.97
2023-02-07T23:45:32.983Z,90.13
2023-02-07T23:48:01.666Z,72.33
2023-02-07T23:50:29.298Z,65.33
2023-02-07T23:52:56.515Z,64.73
2023-02-07T23:55:23.814Z,66.87
2023-02-07T23:57:51.068Z,72.03
